createdAt,value
2023-03-30T00:02:47.453Z,5.73
2023-03-30T00:06:51.089Z,5.30
2023-03-30T00:10:55.935Z,6.67
2023-03-30T00:15:00.675Z,4.90
2023-03-30T00:19:04.079Z,5.90
2023-03-30T00:23:07.382Z,5.43
2023-03-30T00:27:10.682Z,5.83
2023-03-30T00:31:15.654Z,6.63
2023-03-30T00:35:19.702Z,5.50
2023-03-30T00:39:23.420Z,5.40
2023-03-30T00:43:27.809Z,6.00
2023-03-30T00:47:33.983Z,5.23
2023-03-30T00:51:40.528Z,5.40
2023-03-30T00:55:44.974Z,6.10
2023-03-30T00:59:49.812Z,5.40
2023-03-30T01:03:55.207Z,5.90
2023-03-30T01:08:00.377Z,6.30
2023-03-30T01:12:05.495Z,5.20
2023-03-30T01:16:20.822Z,5.90
2023-03-30T01:21:01.635Z,6.70
2023-03-30T01:25:38.662Z,5.53
2023-03-30T01:29:50.375Z,6.43
2023-03-30T01:34:20.278Z,5.10
2023-03-30T01:39:10.626Z,5.23
2023-03-30T01:43:21.262Z,6.30
2023-03-30T01:47:29.303Z,4.90
2023-03-30T01:51:36.909Z,5.63
2023-03-30T01:55:45.568Z,5.40
2023-03-30T01:59:56.666Z,5.37
2023-03-30T02:04:01.608Z,5.80
2023-03-30T02:08:09.540Z,6.30
2023-03-30T02:12:14.486Z,7.00
2023-03-30T02:16:25.604Z,8.23
2023-03-30T02:20:30.089Z,6.27
2023-03-30T02:24:35.359Z,5.67
2023-03-30T02:28:38.723Z,6.80
2023-03-30T02:32:46.612Z,5.40
2023-03-30T02:37:19.421Z,5.73
2023-03-30T02:41:38.416Z,4.57
2023-03-30T02:45:51.193Z,4.77
2023-03-30T02:50:01.943Z,5.97
2023-03-30T02:54:15.942Z,6.57
2023-03-30T02:58:25.351Z,5.80
2023-03-30T03:02:34.101Z,4.97
2023-03-30T03:06:40.028Z,5.70
2023-03-30T03:10:43.380Z,5.90
2023-03-30T03:14:46.618Z,4.87
2023-03-30T03:18:50.481Z,5.10
2023-03-30T03:22:55.059Z,5.17
2023-03-30T03:26:58.773Z,5.40
2023-03-30T03:31:02.777Z,5.20
2023-03-30T03:35:07.423Z,5.67
2023-03-30T03:39:12.021Z,5.33
2023-03-30T03:43:15.268Z,5.97
2023-03-30T03:47:18.720Z,5.37
2023-03-30T03:51:22.004Z,5.20
2023-03-30T03:55:28.646Z,5.73
2023-03-30T03:59:32.019Z,5.20
2023-03-30T04:03:35.675Z,5.47
2023-03-30T04:07:39.496Z,5.40
2023-03-30T04:11:44.161Z,5.37
2023-03-30T04:15:47.467Z,6.57
2023-03-30T04:19:53.868Z,5.70
2023-03-30T04:23:57.394Z,5.83
2023-03-30T04:28:05.286Z,5.50
2023-03-30T04:32:08.811Z,6.03
2023-03-30T04:36:17.712Z,6.90
2023-03-30T04:40:21.105Z,6.00
2023-03-30T04:44:25.833Z,6.53
2023-03-30T04:48:29.125Z,5.93
2023-03-30T04:52:32.389Z,5.57
2023-03-30T04:56:35.800Z,5.33
2023-03-30T05:00:42.848Z,7.07
2023-03-30T05:04:46.652Z,6.77
2023-03-30T05:08:49.926Z,6.20
2023-03-30T05:12:55.699Z,6.23
2023-03-30T05:17:00.956Z,6.60
2023-03-30T05:21:04.638Z,6.87
2023-03-30T05:25:09.555Z,5.60
2023-03-30T05:29:13.019Z,8.30
2023-03-30T05:33:17.825Z,9.93
2023-03-30T05:37:22.002Z,8.00
2023-03-30T05:41:27.667Z,8.40
2023-03-30T05:45:31.441Z,8.47
2023-03-30T05:49:36.669Z,8.20
2023-03-30T05:53:40.077Z,8.10
2023-03-30T05:57:43.509Z,10.50
2023-03-30T06:01:47.630Z,8.63
2023-03-30T06:05:54.643Z,6.70
2023-03-30T06:09:59.720Z,6.50
2023-03-30T06:14:03.159Z,6.73
2023-03-30T06:18:07.284Z,7.33
2023-03-30T06:22:11.913Z,5.77
2023-03-30T06:26:16.564Z,6.40
2023-03-30T06:30:20.395Z,12.20
2023-03-30T06:34:24.184Z,6.80
2023-03-30T06:38:29.228Z,6.57
2023-03-30T06:42:33.670Z,6.87
2023-03-30T06:46:37.558Z,7.47
2023-03-30T06:50:41.546Z,6.83
2023-03-30T06:54:47.293Z,7.20
2023-03-30T06:58:51.932Z,7.60
2023-03-30T07:02:56.098Z,8.90
2023-03-30T07:06:59.760Z,8.53
2023-03-30T07:11:05.918Z,9.43
2023-03-30T07:15:12.397Z,9.07
2023-03-30T07:19:16.319Z,8.53
2023-03-30T07:23:19.879Z,10.50
2023-03-30T07:27:25.571Z,8.13
2023-03-30T07:31:30.120Z,9.50
2023-03-30T07:35:33.460Z,11.63
2023-03-30T07:39:36.754Z,9.73
2023-03-30T07:43:41.729Z,9.57
2023-03-30T07:47:45.089Z,10.40
2023-03-30T07:51:48.571Z,8.80
2023-03-30T07:55:53.350Z,8.90
2023-03-30T07:59:58.564Z,8.13
2023-03-30T08:04:02.585Z,8.13
2023-03-30T08:08:06.178Z,8.17
2023-03-30T08:12:10.053Z,8.43
2023-03-30T08:16:15.781Z,9.40
2023-03-30T08:20:19.727Z,8.77
2023-03-30T08:24:23.348Z,7.33
2023-03-30T08:28:27.600Z,8.97
2023-03-30T08:32:32.433Z,7.30
2023-03-30T08:36:35.859Z,7.10
2023-03-30T08:40:41.561Z,7.97
2023-03-30T08:44:47.573Z,8.03
2023-03-30T08:48:53.705Z,8.17
2023-03-30T08:52:57.046Z,7.70
2023-03-30T08:57:07.773Z,8.40
2023-03-30T09:01:20.008Z,8.20
2023-03-30T09:05:32.832Z,7.70
2023-03-30T09:09:42.364Z,8.00
2023-03-30T09:13:47.992Z,7.60
2023-03-30T09:17:56.497Z,7.67
2023-03-30T09:22:03.820Z,7.30
2023-03-30T09:26:19.700Z,8.27
2023-03-30T09:30:26.526Z,6.50
2023-03-30T09:34:39.247Z,7.50
2023-03-30T09:38:45.344Z,7.00
2023-03-30T09:42:58.673Z,7.83
2023-03-30T09:47:03.397Z,6.23
2023-03-30T09:51:16.506Z,7.70
2023-03-30T09:55:28.511Z,5.63
2023-03-30T09:59:33.017Z,5.60
2023-03-30T10:03:38.380Z,5.93
2023-03-30T10:07:43.332Z,5.93
2023-03-30T10:11:51.127Z,5.43
2023-03-30T10:15:56.035Z,6.17
2023-03-30T10:20:27.492Z,8.57
2023-03-30T10:24:33.284Z,7.43
2023-03-30T10:28:38.264Z,8.83
2023-03-30T10:32:46.923Z,8.67
2023-03-30T10:36:54.817Z,7.60
2023-03-30T10:41:03.634Z,8.60
2023-03-30T10:45:16.927Z,8.87
2023-03-30T10:49:27.204Z,6.20
2023-03-30T10:53:42.707Z,7.13
2023-03-30T10:57:54.651Z,7.77
2023-03-30T11:02:20.814Z,7.40
2023-03-30T11:06:29.156Z,6.77
2023-03-30T11:10:37.276Z,5.93
2023-03-30T11:14:49.927Z,6.60
2023-03-30T11:18:58.319Z,5.07
2023-03-30T11:23:13.998Z,5.20
2023-03-30T11:27:22.132Z,5.60
2023-03-30T11:31:45.689Z,5.67
2023-03-30T11:35:54.763Z,4.97
2023-03-30T11:40:08.709Z,5.70
2023-03-30T11:44:13.739Z,5.40
2023-03-30T11:49:05.794Z,6.10
2023-03-30T11:53:25.787Z,7.50
2023-03-30T11:57:37.052Z,6.60
2023-03-30T12:01:57.403Z,7.50
2023-03-30T12:06:11.189Z,6.23
2023-03-30T12:10:21.986Z,6.17
2023-03-30T12:14:36.062Z,6.33
2023-03-30T12:18:44.057Z,5.83
2023-03-30T12:22:51.852Z,5.73
2023-03-30T12:27:05.498Z,5.43
2023-03-30T12:31:09.732Z,5.37
2023-03-30T12:35:49.408Z,5.30
2023-03-30T12:39:58.258Z,6.30
2023-03-30T12:44:21.802Z,6.07
2023-03-30T12:48:38.060Z,6.13
2023-03-30T12:52:53.592Z,6.10
2023-03-30T12:57:11.862Z,7.47
2023-03-30T13:01:33.239Z,7.07
2023-03-30T13:05:41.124Z,6.00
2023-03-30T13:09:57.015Z,6.70
2023-03-30T13:14:03.598Z,6.70
2023-03-30T13:18:37.221Z,6.70
2023-03-30T13:22:40.735Z,6.17
2023-03-30T13:26:46.133Z,6.10
2023-03-30T13:30:50.205Z,5.37
2023-03-30T13:35:07.403Z,5.60
2023-03-30T13:39:24.069Z,5.87
2023-03-30T13:43:42.403Z,5.33
2023-03-30T13:47:59.316Z,5.70
2023-03-30T13:52:07.993Z,5.97
2023-03-30T13:56:12.760Z,5.70
2023-03-30T14:00:33.446Z,5.37
2023-03-30T14:04:39.171Z,5.50
2023-03-30T14:08:46.419Z,5.77
2023-03-30T14:12:53.293Z,5.30
2023-03-30T14:16:57.343Z,5.47
2023-03-30T14:21:04.121Z,4.67
2023-03-30T14:25:24.434Z,4.90
2023-03-30T14:29:31.650Z,4.90
2023-03-30T14:33:40.282Z,5.00
2023-03-30T14:37:51.629Z,5.53
2023-03-30T14:41:57.747Z,5.20
2023-03-30T14:46:06.142Z,4.80
2023-03-30T14:50:10.805Z,4.77
2023-03-30T14:54:18.015Z,5.07
2023-03-30T14:58:22.827Z,5.07
2023-03-30T15:02:30.008Z,4.90
2023-03-30T15:06:33.810Z,4.80
2023-03-30T15:10:45.422Z,5.67
2023-03-30T15:14:51.178Z,5.30
2023-03-30T15:18:57.288Z,5.00
2023-03-30T15:23:02.339Z,5.63
2023-03-30T15:27:11.766Z,4.80
2023-03-30T15:31:17.431Z,4.67
2023-03-30T15:35:23.885Z,5.27
2023-03-30T15:39:34.268Z,4.80
2023-03-30T15:43:38.545Z,4.93
2023-03-30T15:47:43.663Z,5.30
2023-03-30T15:51:48.871Z,4.70
2023-03-30T15:55:53.988Z,4.40
2023-03-30T16:00:01.396Z,4.50
2023-03-30T16:04:07.239Z,5.30
2023-03-30T16:08:10.617Z,5.17
2023-03-30T16:12:16.482Z,5.23
2023-03-30T16:16:20.034Z,4.97
2023-03-30T16:20:26.730Z,4.63
2023-03-30T16:24:30.469Z,4.40
2023-03-30T16:28:33.972Z,6.03
2023-03-30T16:32:37.696Z,5.50
2023-03-30T16:36:42.505Z,5.17
2023-03-30T16:40:50.195Z,7.60
2023-03-30T16:44:53.541Z,5.63
2023-03-30T16:48:57.765Z,6.07
2023-03-30T16:53:03.706Z,5.20
2023-03-30T16:57:09.909Z,5.97
2023-03-30T17:01:18.509Z,6.20
2023-03-30T17:05:22.541Z,7.20
2023-03-30T17:09:27.666Z,6.27
2023-03-30T17:13:32.599Z,7.23
2023-03-30T17:17:38.942Z,6.20
2023-03-30T17:21:44.123Z,6.50
2023-03-30T17:26:03.980Z,5.67
2023-03-30T17:30:20.631Z,5.63
2023-03-30T17:34:25.382Z,3.20
2023-03-30T17:38:30.182Z,3.07
2023-03-30T17:42:35.618Z,2.30
2023-03-30T17:46:43.560Z,2.17
2023-03-30T17:50:51.368Z,2.70
2023-03-30T17:54:55.512Z,1.80
2023-03-30T17:59:03.085Z,1.70
2023-03-30T18:03:07.480Z,2.63
2023-03-30T18:07:15.024Z,1.80
2023-03-30T18:11:20.472Z,2.40
2023-03-30T18:15:31.319Z,1.87
2023-03-30T18:20:02.784Z,2.20
2023-03-30T18:24:15.087Z,2.57
2023-03-30T18:28:24.099Z,2.53
2023-03-30T18:32:47.167Z,2.23
2023-03-30T18:36:52.210Z,2.10
2023-03-30T18:40:58.754Z,2.40
2023-03-30T18:45:05.070Z,2.40
2023-03-30T18:49:17.584Z,2.43
2023-03-30T18:58:10.253Z,3.27
2023-03-30T19:02:15.224Z,4.00
2023-03-30T19:06:27.989Z,3.50
2023-03-30T19:10:52.655Z,3.97
2023-03-30T19:15:17.445Z,4.27
2023-03-30T19:19:25.201Z,4.10
2023-03-30T19:23:33.973Z,3.80
2023-03-30T19:27:39.561Z,4.57
2023-03-30T19:31:44.912Z,5.23
2023-03-30T19:35:51.798Z,4.40
2023-03-30T19:40:02.411Z,4.73
2023-03-30T19:44:06.879Z,4.67
2023-03-30T19:48:12.064Z,3.70
2023-03-30T19:52:16.825Z,4.00
2023-03-30T19:56:23.924Z,4.57
2023-03-30T20:00:28.780Z,3.70
2023-03-30T20:04:33.390Z,4.80
2023-03-30T20:08:38.025Z,4.37
2023-03-30T20:12:43.255Z,4.10
2023-03-30T20:16:48.753Z,4.10
2023-03-30T20:20:52.359Z,3.87
2023-03-30T20:24:58.589Z,4.00
2023-03-30T20:29:04.861Z,3.63
2023-03-30T20:33:09.721Z,3.90
2023-03-30T20:37:13.671Z,4.10
2023-03-30T20:41:21.617Z,4.47
2023-03-30T20:45:28.600Z,4.77
2023-03-30T20:49:33.597Z,4.50
2023-03-30T20:53:38.646Z,4.70
2023-03-30T20:57:44.301Z,4.23
2023-03-30T21:01:51.966Z,4.83
2023-03-30T21:06:01.494Z,3.90
2023-03-30T21:10:05.927Z,3.97
2023-03-30T21:14:12.388Z,3.90
2023-03-30T21:18:17.221Z,3.60
2023-03-30T21:22:21.465Z,2.83
2023-03-30T21:26:24.761Z,3.77
2023-03-30T21:30:29.109Z,3.70
2023-03-30T21:34:33.754Z,3.50
2023-03-30T21:38:37.630Z,3.70
2023-03-30T21:42:41.183Z,4.43
2023-03-30T21:46:44.589Z,4.37
2023-03-30T21:50:49.369Z,5.03
2023-03-30T21:54:52.774Z,4.73
2023-03-30T21:58:56.049Z,4.60
2023-03-30T22:02:59.510Z,5.20
2023-03-30T22:07:04.953Z,5.23
2023-03-30T22:11:10.415Z,5.40
2023-03-30T22:15:14.112Z,4.80
2023-03-30T22:19:22.978Z,4.93
2023-03-30T22:23:27.771Z,4.10
2023-03-30T22:27:31.220Z,5.60
2023-03-30T22:31:35.277Z,5.13
2023-03-30T22:35:39.719Z,5.53
2023-03-30T22:39:44.860Z,4.90
2023-03-30T22:43:48.131Z,5.87
2023-03-30T22:47:52.720Z,5.27
2023-03-30T22:51:56.037Z,4.60
2023-03-30T22:56:00.780Z,4.83
2023-03-30T23:00:09.931Z,5.60
2023-03-30T23:04:13.607Z,5.70
2023-03-30T23:08:17.061Z,5.60
2023-03-30T23:12:21.678Z,4.80
2023-03-30T23:16:27.704Z,5.47
2023-03-30T23:20:30.986Z,4.20
2023-03-30T23:24:34.384Z,4.40
2023-03-30T23:28:40.288Z,3.73
2023-03-30T23:32:43.774Z,4.33
2023-03-30T23:36:49.710Z,4.17
2023-03-30T23:40:57.782Z,3.70
2023-03-30T23:45:02.501Z,4.30
2023-03-30T23:49:06.319Z,4.03
2023-03-30T23:53:09.500Z,4.67
2023-03-30T23:57:13.010Z,5.00
